| time (UTC) | temp F | wind direction | speed MPH | gust MPH | rain 1hr in | rain 24hr in | rain mn in | humidity % | barometer mb |
| 20260510124507 | 49 | 213 | 0.0 | 4.0 | 0.00 | 0.00 | 0.00 | 96 | 1017.1 |
| 20260510123006 | 49 | 173 | 1.0 | 5.0 | 0.00 | 0.00 | 0.00 | 96 | 1016.8 |
| 20260510121506 | 49 | 214 | 0.0 | 7.0 | 0.00 | 0.00 | 0.00 | 96 | 1016.9 |
| 20260510120007 | 49 | 124 | 1.0 | 6.0 | 0.00 | 0.00 | 0.00 | 96 | 1017.1 |
| 20260510114507 | 49 | 203 | 1.0 | 5.0 | 0.00 | 0.00 | 0.00 | 96 | 1017.1 |
| 20260510113002 | 49 | 224 | 0.0 | 3.0 | 0.00 | 0.00 | 0.00 | 95 | 1016.8 |
| 20260510111602 | 49 | 150 | 0.0 | 3.0 | 0.00 | 0.00 | 0.00 | 95 | 1016.8 |
| 20260510110101 | 49 | 220 | 1.0 | 3.0 | 0.00 | 0.00 | 0.00 | 95 | 1017.0 |
| 20260510104600 | 49 | 131 | 0.0 | 2.0 | 0.00 | 0.00 | 0.00 | 95 | 1016.9 |
| 20260510103058 | 49 | 148 | 0.0 | 1.0 | 0.00 | 0.00 | 0.00 | 95 | 1016.7 |
| 20260510101600 | 50 | 121 | 0.0 | 2.0 | 0.00 | 0.00 | 0.00 | 95 | 1016.9 |
| 20260510100125 | 50 | 151 | 0.0 | 3.0 | 0.00 | 0.00 | 0.00 | 95 | 1016.9 |
| 20260510094557 | 50 | 201 | 1.0 | 6.0 | 0.00 | 0.00 | 0.00 | 95 | 1016.7 |
| 20260510093057 | 50 | 214 | 0.0 | 5.0 | 0.00 | 0.00 | 0.00 | 94 | 1016.8 |
| 20260510091554 | 50 | 301 | 1.0 | 6.0 | 0.00 | 0.00 | 0.00 | 94 | 1016.7 |
| 20260510090050 | 50 | 278 | 1.0 | 7.0 | 0.00 | 0.00 | 0.00 | 94 | 1016.7 |
| 20260510084548 | 51 | 103 | 2.0 | 7.0 | 0.00 | 0.00 | 0.00 | 94 | 1016.6 |
| 20260510083052 | 51 | 179 | 3.0 | 7.0 | 0.00 | 0.00 | 0.00 | 93 | 1016.6 |
| 20260510081547 | 51 | 138 | 3.0 | 7.0 | 0.00 | 0.00 | 0.00 | 93 | 1016.6 |
| 20260510080042 | 51 | 155 | 1.0 | 8.0 | 0.00 | 0.00 | 0.00 | 92 | 1016.6 |
| 20260510074542 | 51 | 236 | 0.0 | 5.0 | 0.00 | 0.00 | 0.00 | 92 | 1016.5 |
| 20260510073040 | 51 | 205 | 1.0 | 7.0 | 0.00 | 0.00 | 0.00 | 91 | 1016.4 |
| 20260510071548 | 51 | 266 | 0.0 | 6.0 | 0.00 | 0.00 | 0.00 | 90 | 1016.6 |
| 20260510070035 | 51 | 153 | 0.0 | 6.0 | 0.00 | 0.00 | 0.00 | 90 | 1016.6 |
| 20260510064534 | 52 | 250 | 2.0 | 6.0 | 0.00 | 0.00 | 0.00 | 89 | 1016.6 |
| 20260510063034 | 52 | 212 | 0.0 | 5.0 | 0.00 | 0.00 | 0.00 | 88 | 1016.7 |
| 20260510061544 | 52 | 204 | 0.0 | 6.0 | 0.00 | 0.00 | 0.00 | 87 | 1016.6 |
| 20260510060032 | 53 | 167 | 1.0 | 4.0 | 0.00 | 0.00 | 0.00 | 85 | 1016.6 |
| 20260510054535 | 53 | 219 | 2.0 | 7.0 | 0.00 | 0.00 | 0.00 | 84 | 1016.6 |
| 20260510053031 | 53 | 126 | 0.0 | 4.0 | 0.00 | 0.00 | 0.00 | 82 | 1016.6 |
| 20260510051530 | 53 | 155 | 0.0 | 2.0 | 0.00 | 0.00 | 0.00 | 83 | 1016.7 |
| 20260510050034 | 54 | 151 | 0.0 | 3.0 | 0.00 | 0.00 | 0.00 | 82 | 1016.8 |
| 20260510044527 | 54 | 244 | 1.0 | 4.0 | 0.00 | 0.00 | 0.00 | 82 | 1017.0 |
| 20260510043028 | 54 | 172 | 0.0 | 4.0 | 0.00 | 0.00 | 0.00 | 82 | 1016.9 |
| 20260510041527 | 54 | 144 | 0.0 | 4.0 | 0.00 | 0.00 | 0.00 | 82 | 1016.9 |
| 20260510040027 | 54 | 264 | 0.0 | 4.0 | 0.00 | 0.00 | 0.00 | 81 | 1016.6 |
| 20260510034526 | 54 | 134 | 1.0 | 5.0 | 0.00 | 0.00 | 0.00 | 81 | 1016.6 |
| 20260510033026 | 55 | 129 | 1.0 | 5.0 | 0.00 | 0.00 | 0.00 | 79 | 1016.5 |
| 20260510031538 | 56 | 145 | 0.0 | 4.0 | 0.00 | 0.00 | 0.00 | 79 | 1016.5 |
| 20260510030025 | 56 | 153 | 1.0 | 4.0 | 0.00 | 0.00 | 0.00 | 80 | 1016.6 |
| 20260510024534 | 57 | 179 | 1.0 | 4.0 | 0.00 | 0.00 | 0.00 | 78 | 1016.7 |
| 20260510023021 | 61 | 289 | 0.0 | 5.0 | 0.00 | 0.00 | 0.00 | 73 | 1016.8 |
| 20260510021523 | 62 | 198 | 0.0 | 4.0 | 0.00 | 0.00 | 0.00 | 71 | 1016.8 |
| 20260510020019 | 63 | 88 | 1.0 | 3.0 | 0.00 | 0.00 | 0.00 | 70 | 1017.0 |
| 20260510014522 | 62 | 197 | 1.0 | 4.0 | 0.00 | 0.00 | 0.00 | 72 | 1017.2 |
| 20260510013014 | 62 | 195 | 0.0 | 3.0 | 0.00 | 0.00 | 0.00 | 75 | 1017.5 |
| 20260510011510 | 63 | 230 | 1.0 | 4.0 | 0.00 | 0.00 | 0.00 | 71 | 1017.9 |
| 20260510010015 | 63 | 262 | 0.0 | 2.0 | 0.00 | 0.00 | 0.00 | 70 | 1018.0 |
| 20260510004511 | 64 | 265 | 1.0 | 3.0 | 0.00 | 0.00 | 0.00 | 65 | 1018.1 |
| 20260510003022 | 65 | 291 | 0.0 | 2.0 | 0.00 | 0.00 | 0.00 | 64 | 1018.1 |
| 20260510001505 | 62 | 321 | 0.0 | 4.0 | 0.00 | 0.00 | 0.00 | 66 | 1018.5 |
| 20260510000004 | 62 | 305 | 2.0 | 6.0 | 0.00 | 0.00 | 0.00 | 66 | 1018.7 |
| 20260509234508 | 62 | 72 | 3.0 | 10.0 | 0.00 | 0.00 | 0.00 | 63 | 1018.8 |
| 20260509233002 | 63 | 35 | 5.0 | 8.0 | 0.00 | 0.00 | 0.00 | 63 | 1018.9 |
| 20260509231559 | 64 | 49 | 1.0 | 4.0 | 0.00 | 0.00 | 0.00 | 64 | 1019.2 |
| 20260509230103 | 64 | 51 | 1.0 | 5.0 | 0.00 | 0.00 | 0.00 | 66 | 1019.6 |
| 20260509224555 | 65 | 30 | 2.0 | 5.0 | 0.00 | 0.00 | 0.00 | 68 | 1019.8 |
| 20260509223052 | 64 | 311 | 2.0 | 5.0 | 0.00 | 0.00 | 0.00 | 67 | 1020.0 |
| 20260509221550 | 65 | 323 | 0.0 | 6.0 | 0.00 | 0.00 | 0.00 | 68 | 1020.3 |
| 20260509220047 | 64 | 214 | 1.0 | 5.0 | 0.00 | 0.00 | 0.00 | 70 | 1020.4 |
| 20260509214546 | 63 | 250 | 3.0 | 5.0 | 0.00 | 0.00 | 0.00 | 71 | 1020.6 |
| 20260509213044 | 62 | 207 | 1.0 | 6.0 | 0.00 | 0.00 | 0.00 | 72 | 1020.6 |
| 20260509211540 | 62 | 251 | 0.0 | 5.0 | 0.00 | 0.00 | 0.00 | 74 | 1020.8 |
| 20260509210045 | 62 | 282 | 1.0 | 5.0 | 0.00 | 0.00 | 0.00 | 74 | 1021.2 |
| 20260509204537 | 60 | 226 | 2.0 | 5.0 | 0.00 | 0.00 | 0.00 | 76 | 1021.2 |
| 20260509203038 | 61 | 228 | 1.0 | 5.0 | 0.00 | 0.00 | 0.00 | 75 | 1021.0 |
| 20260509201535 | 61 | 218 | 0.0 | 6.0 | 0.00 | 0.00 | 0.00 | 77 | 1021.1 |
| 20260509200033 | 60 | 210 | 3.0 | 7.0 | 0.00 | 0.00 | 0.00 | 74 | 1021.3 |
| 20260509194536 | 60 | 216 | 1.0 | 7.0 | 0.00 | 0.00 | 0.00 | 76 | 1021.4 |
| 20260509193030 | 61 | 231 | 1.0 | 4.0 | 0.00 | 0.00 | 0.00 | 75 | 1021.6 |
| 20260509191527 | 60 | 222 | 2.0 | 5.0 | 0.00 | 0.00 | 0.00 | 75 | 1021.8 |
| 20260509190027 | 61 | 194 | 1.0 | 4.0 | 0.00 | 0.00 | 0.00 | 75 | 1021.8 |
| 20260509184527 | 61 | 316 | 1.0 | 4.0 | 0.00 | 0.00 | 0.00 | 74 | 1021.9 |
| 20260509183027 | 60 | 355 | 0.0 | 3.0 | 0.00 | 0.00 | 0.00 | 77 | 1021.8 |
| 20260509181529 | 60 | 303 | 1.0 | 4.0 | 0.00 | 0.00 | 0.00 | 77 | 1022.0 |
| 20260509180018 | 59 | 316 | 1.0 | 5.0 | 0.00 | 0.00 | 0.00 | 77 | 1022.1 |
| 20260509174516 | 58 | 305 | 2.0 | 4.0 | 0.00 | 0.00 | 0.00 | 78 | 1022.0 |
| 20260509173020 | 58 | 307 | 2.0 | 4.0 | 0.00 | 0.00 | 0.00 | 79 | 1022.1 |
| 20260509171510 | 57 | 302 | 2.0 | 5.0 | 0.00 | 0.00 | 0.00 | 81 | 1022.2 |
| 20260509170011 | 57 | 338 | 2.0 | 5.0 | 0.00 | 0.00 | 0.00 | 81 | 1022.3 |
| 20260509164511 | 57 | 328 | 0.0 | 4.0 | 0.00 | 0.00 | 0.00 | 81 | 1022.3 |
| 20260509163007 | 57 | 4 | 0.0 | 4.0 | 0.00 | 0.00 | 0.00 | 82 | 1022.3 |
| 20260509161506 | 56 | 336 | 0.0 | 3.0 | 0.00 | 0.00 | 0.00 | 82 | 1022.5 |
| 20260509160007 | 56 | 326 | 1.0 | 4.0 | 0.00 | 0.00 | 0.00 | 82 | 1022.8 |
| 20260509154503 | 56 | 316 | 1.0 | 4.0 | 0.00 | 0.00 | 0.00 | 82 | 1022.8 |
| 20260509153001 | 56 | 348 | 1.0 | 4.0 | 0.00 | 0.00 | 0.00 | 82 | 1022.8 |
| 20260509151559 | 56 | 357 | 1.0 | 3.0 | 0.00 | 0.00 | 0.00 | 83 | 1022.8 |
| 20260509150057 | 55 | 42 | 0.0 | 4.0 | 0.00 | 0.00 | 0.00 | 84 | 1023.0 |
| 20260509144556 | 55 | 13 | 0.0 | 3.0 | 0.00 | 0.00 | 0.00 | 83 | 1023.1 |
| 20260509143055 | 55 | 87 | 0.0 | 1.0 | 0.00 | 0.00 | 0.00 | 86 | 1023.0 |
| 20260509141556 | 53 | 153 | 0.0 | 0.0 | 0.00 | 0.00 | 0.00 | 89 | 1023.2 |
| 20260509140056 | 51 | 160 | 0.0 | 0.0 | 0.00 | 0.00 | 0.00 | 90 | 1023.3 |
| 20260509134552 | 51 | 160 | 0.0 | 0.0 | 0.00 | 0.00 | 0.00 | 91 | 1023.3 |
| 20260509133048 | 50 | 160 | 0.0 | 0.0 | 0.00 | 0.00 | 0.00 | 91 | 1023.3 |
| 20260509131545 | 50 | 158 | 0.0 | 0.0 | 0.00 | 0.00 | 0.00 | 91 | 1023.3 |
| 20260509130046 | 50 | 158 | 0.0 | 0.0 | 0.00 | 0.00 | 0.00 | 91 | 1023.2 |